sensor_id;sensor_type;location;lat;lon;timestamp;pressure;altitude;pressure_sealevel;temperature;humidity
21779;BME280;11050;52.222;20.916;2023-05-09T00:01:58;101458.00;;;7.09;85.71
21779;BME280;11050;52.222;20.916;2023-05-09T00:04:25;101466.59;;;7.06;86.31
21779;BME280;11050;52.222;20.916;2023-05-09T00:06:50;101461.94;;;7.00;86.79
21779;BME280;11050;52.222;20.916;2023-05-09T00:09:16;101462.16;;;6.99;87.48
21779;BME280;11050;52.222;20.916;2023-05-09T00:11:42;101461.72;;;6.95;86.99
21779;BME280;11050;52.222;20.916;2023-05-09T00:14:09;101452.88;;;6.93;87.18
21779;BME280;11050;52.222;20.916;2023-05-09T00:16:36;101447.78;;;6.90;87.06
21779;BME280;11050;52.222;20.916;2023-05-09T00:19:03;101457.06;;;6.89;87.59
21779;BME280;11050;52.222;20.916;2023-05-09T00:21:29;101452.81;;;6.87;86.17
21779;BME280;11050;52.222;20.916;2023-05-09T00:23:55;101450.94;;;6.87;86.27
21779;BME280;11050;52.222;20.916;2023-05-09T00:26:21;101451.16;;;6.86;86.48
21779;BME280;11050;52.222;20.916;2023-05-09T00:28:48;101445.69;;;6.86;85.40
21779;BME280;11050;52.222;20.916;2023-05-09T00:31:13;101448.63;;;6.84;86.19
21779;BME280;11050;52.222;20.916;2023-05-09T00:33:39;101446.94;;;6.83;87.64
21779;BME280;11050;52.222;20.916;2023-05-09T00:36:05;101444.41;;;6.82;87.81
21779;BME280;11050;52.222;20.916;2023-05-09T00:38:31;101442.09;;;6.79;87.98
21779;BME280;11050;52.222;20.916;2023-05-09T00:40:56;101451.31;;;6.78;89.02
21779;BME280;11050;52.222;20.916;2023-05-09T00:43:22;101445.19;;;6.76;88.80
21779;BME280;11050;52.222;20.916;2023-05-09T00:45:48;101438.00;;;6.68;89.40
21779;BME280;11050;52.222;20.916;2023-05-09T00:48:15;101448.56;;;6.71;89.21
21779;BME280;11050;52.222;20.916;2023-05-09T00:50:41;101447.69;;;6.70;89.59
21779;BME280;11050;52.222;20.916;2023-05-09T00:53:08;101445.19;;;6.69;89.79
21779;BME280;11050;52.222;20.916;2023-05-09T00:55:35;101447.25;;;6.67;90.63
21779;BME280;11050;52.222;20.916;2023-05-09T00:58:02;101450.13;;;6.59;91.95
21779;BME280;11050;52.222;20.916;2023-05-09T01:00:28;101448.47;;;6.58;92.70
21779;BME280;11050;52.222;20.916;2023-05-09T01:02:55;101443.81;;;6.52;92.77
21779;BME280;11050;52.222;20.916;2023-05-09T01:05:28;101434.31;;;6.48;93.95
21779;BME280;11050;52.222;20.916;2023-05-09T01:08:09;101437.44;;;6.45;94.58
21779;BME280;11050;52.222;20.916;2023-05-09T01:10:55;101438.91;;;6.41;95.32
21779;BME280;11050;52.222;20.916;2023-05-09T01:13:51;101443.94;;;6.44;95.06
21779;BME280;11050;52.222;20.916;2023-05-09T01:16:40;101441.22;;;6.44;96.42
21779;BME280;11050;52.222;20.916;2023-05-09T01:21:43;101438.94;;;6.47;95.79
21779;BME280;11050;52.222;20.916;2023-05-09T01:24:56;101441.66;;;6.47;94.92
21779;BME280;11050;52.222;20.916;2023-05-09T01:27:38;101443.53;;;6.47;95.07
21779;BME280;11050;52.222;20.916;2023-05-09T01:30:11;101435.16;;;6.48;95.58
21779;BME280;11050;52.222;20.916;2023-05-09T01:32:41;101443.34;;;6.48;95.19
21779;BME280;11050;52.222;20.916;2023-05-09T01:35:13;101444.59;;;6.46;95.76
21779;BME280;11050;52.222;20.916;2023-05-09T01:37:42;101437.84;;;6.42;95.53
21779;BME280;11050;52.222;20.916;2023-05-09T01:40:20;101445.38;;;6.40;95.30
21779;BME280;11050;52.222;20.916;2023-05-09T01:43:05;101431.69;;;6.33;94.22
21779;BME280;11050;52.222;20.916;2023-05-09T01:45:33;101443.72;;;6.39;94.28
21779;BME280;11050;52.222;20.916;2023-05-09T01:47:59;101439.06;;;6.39;94.66
21779;BME280;11050;52.222;20.916;2023-05-09T01:50:28;101434.47;;;6.40;93.33
21779;BME280;11050;52.222;20.916;2023-05-09T01:52:57;101438.91;;;6.41;93.00
21779;BME280;11050;52.222;20.916;2023-05-09T01:55:33;101443.31;;;6.42;92.85
21779;BME280;11050;52.222;20.916;2023-05-09T01:58:04;101442.44;;;6.41;91.89
21779;BME280;11050;52.222;20.916;2023-05-09T02:00:33;101437.19;;;6.40;92.99
21779;BME280;11050;52.222;20.916;2023-05-09T02:03:01;101448.97;;;6.40;91.54
21779;BME280;11050;52.222;20.916;2023-05-09T02:05:29;101437.19;;;6.40;91.97
21779;BME280;11050;52.222;20.916;2023-05-09T02:07:57;101438.25;;;6.39;92.42
21779;BME280;11050;52.222;20.916;2023-05-09T02:10:29;101431.94;;;6.38;93.10
21779;BME280;11050;52.222;20.916;2023-05-09T02:12:55;101433.16;;;6.36;93.42
21779;BME280;11050;52.222;20.916;2023-05-09T02:15:23;101428.13;;;6.33;92.91
21779;BME280;11050;52.222;20.916;2023-05-09T02:17:48;101435.47;;;6.32;92.72
21779;BME280;11050;52.222;20.916;2023-05-09T02:20:14;101429.13;;;6.32;92.57
21779;BME280;11050;52.222;20.916;2023-05-09T02:22:42;101439.03;;;6.33;91.00
21779;BME280;11050;52.222;20.916;2023-05-09T02:25:10;101437.97;;;6.34;89.94
21779;BME280;11050;52.222;20.916;2023-05-09T02:27:39;101445.34;;;6.33;89.21
21779;BME280;11050;52.222;20.916;2023-05-09T02:30:11;101427.91;;;6.34;88.36
21779;BME280;11050;52.222;20.916;2023-05-09T02:32:42;101429.78;;;6.34;88.63
21779;BME280;11050;52.222;20.916;2023-05-09T02:35:09;101431.50;;;6.35;88.95
21779;BME280;11050;52.222;20.916;2023-05-09T02:37:37;101428.56;;;6.36;88.06
21779;BME280;11050;52.222;20.916;2023-05-09T02:40:06;101429.13;;;6.32;87.54
21779;BME280;11050;52.222;20.916;2023-05-09T02:42:33;101427.06;;;6.34;88.54
21779;BME280;11050;52.222;20.916;2023-05-09T02:44:59;101428.69;;;6.28;88.13
21779;BME280;11050;52.222;20.916;2023-05-09T02:47:25;101435.25;;;6.34;88.05
21779;BME280;11050;52.222;20.916;2023-05-09T02:49:51;101443.06;;;6.37;87.55
21779;BME280;11050;52.222;20.916;2023-05-09T02:52:16;101442.00;;;6.38;86.13
21779;BME280;11050;52.222;20.916;2023-05-09T02:54:42;101432.78;;;6.39;87.62
21779;BME280;11050;52.222;20.916;2023-05-09T02:57:08;101428.13;;;6.33;87.19
21779;BME280;11050;52.222;20.916;2023-05-09T02:59:33;101436.16;;;6.41;87.69
21779;BME280;11050;52.222;20.916;2023-05-09T03:01:59;101431.53;;;6.41;87.46
21779;BME280;11050;52.222;20.916;2023-05-09T03:04:25;101431.53;;;6.41;87.23
21779;BME280;11050;52.222;20.916;2023-05-09T03:06:51;101427.78;;;6.42;87.03
21779;BME280;11050;52.222;20.916;2023-05-09T03:09:17;101440.38;;;6.43;86.88
21779;BME280;11050;52.222;20.916;2023-05-09T03:11:43;101435.53;;;6.45;87.49
21779;BME280;11050;52.222;20.916;2023-05-09T03:14:09;101429.22;;;6.45;87.61
21779;BME280;11050;52.222;20.916;2023-05-09T03:16:35;101432.44;;;6.48;87.31
21779;BME280;11050;52.222;20.916;2023-05-09T03:19:02;101439.16;;;6.52;87.83
21779;BME280;11050;52.222;20.916;2023-05-09T03:21:28;101432.88;;;6.52;88.16
21779;BME280;11050;52.222;20.916;2023-05-09T03:23:53;101435.00;;;6.56;87.59
21779;BME280;11050;52.222;20.916;2023-05-09T03:26:19;101436.03;;;6.55;86.60
21779;BME280;11050;52.222;20.916;2023-05-09T03:28:47;101432.53;;;6.61;85.92
21779;BME280;11050;52.222;20.916;2023-05-09T03:31:14;101437.78;;;6.63;86.52
21779;BME280;11050;52.222;20.916;2023-05-09T03:33:40;101443.47;;;6.68;85.95
21779;BME280;11050;52.222;20.916;2023-05-09T03:36:06;101441.81;;;6.73;85.42
21779;BME280;11050;52.222;20.916;2023-05-09T03:38:32;101440.16;;;6.79;84.86
21779;BME280;11050;52.222;20.916;2023-05-09T03:40:57;101448.63;;;6.84;84.11
21779;BME280;11050;52.222;20.916;2023-05-09T03:43:23;101440.66;;;6.89;83.56
21779;BME280;11050;52.222;20.916;2023-05-09T03:45:49;101447.19;;;6.95;83.38
21779;BME280;11050;52.222;20.916;2023-05-09T03:48:15;101447.03;;;7.03;81.63
21779;BME280;11050;52.222;20.916;2023-05-09T03:50:41;101444.97;;;7.11;81.53
21779;BME280;11050;52.222;20.916;2023-05-09T03:53:06;101447.75;;;7.18;80.75
21779;BME280;11050;52.222;20.916;2023-05-09T03:55:32;101457.25;;;7.28;80.48
21779;BME280;11050;52.222;20.916;2023-05-09T03:57:58;101437.91;;;7.36;79.40
21779;BME280;11050;52.222;20.916;2023-05-09T04:00:23;101438.56;;;7.45;77.62
21779;BME280;11050;52.222;20.916;2023-05-09T04:02:51;101443.47;;;7.56;76.66
21779;BME280;11050;52.222;20.916;2023-05-09T04:05:17;101439.91;;;7.68;75.54
21779;BME280;11050;52.222;20.916;2023-05-09T04:07:43;101439.50;;;7.78;74.43
21779;BME280;11050;52.222;20.916;2023-05-09T04:10:10;101438.03;;;7.89;73.34
21779;BME280;11050;52.222;20.916;2023-05-09T04:12:36;101438.47;;;7.99;72.54
21779;BME280;11050;52.222;20.916;2023-05-09T04:15:02;101445.44;;;8.14;71.59
21779;BME280;11050;52.222;20.916;2023-05-09T04:17:28;101447.75;;;8.24;71.20
21779;BME280;11050;52.222;20.916;2023-05-09T04:19:53;101456.00;;;8.30;71.69
21779;BME280;11050;52.222;20.916;2023-05-09T04:22:19;101450.72;;;8.42;71.50
21779;BME280;11050;52.222;20.916;2023-05-09T04:24:45;101457.88;;;8.49;71.22
21779;BME280;11050;52.222;20.916;2023-05-09T04:27:10;101461.22;;;8.58;70.06
21779;BME280;11050;52.222;20.916;2023-05-09T04:29:36;101463.75;;;8.66;69.89
21779;BME280;11050;52.222;20.916;2023-05-09T04:32:03;101467.31;;;8.73;69.93
21779;BME280;11050;52.222;20.916;2023-05-09T04:34:29;101464.41;;;8.75;69.66
21779;BME280;11050;52.222;20.916;2023-05-09T04:36:56;101465.84;;;8.84;70.03
21779;BME280;11050;52.222;20.916;2023-05-09T04:39:22;101469.44;;;8.84;70.78
21779;BME280;11050;52.222;20.916;2023-05-09T04:41:48;101465.81;;;8.90;71.53
21779;BME280;11050;52.222;20.916;2023-05-09T04:44:15;101474.03;;;8.97;72.14
21779;BME280;11050;52.222;20.916;2023-05-09T04:46:41;101459.25;;;8.98;71.99
21779;BME280;11050;52.222;20.916;2023-05-09T04:49:08;101456.91;;;9.01;72.56
21779;BME280;11050;52.222;20.916;2023-05-09T04:51:33;101453.53;;;9.06;72.56
21779;BME280;11050;52.222;20.916;2023-05-09T04:53:59;101456.69;;;9.16;71.35
21779;BME280;11050;52.222;20.916;2023-05-09T04:56:25;101462.13;;;9.22;71.51
21779;BME280;11050;52.222;20.916;2023-05-09T04:58:51;101457.25;;;9.31;71.13
21779;BME280;11050;52.222;20.916;2023-05-09T05:01:17;101457.44;;;9.42;70.55
21779;BME280;11050;52.222;20.916;2023-05-09T05:03:43;101464.56;;;9.50;70.09
21779;BME280;11050;52.222;20.916;2023-05-09T05:06:10;101456.44;;;9.62;69.65
21779;BME280;11050;52.222;20.916;2023-05-09T05:08:36;101462.94;;;9.74;68.52
21779;BME280;11050;52.222;20.916;2023-05-09T05:11:01;101455.09;;;9.84;67.52
21779;BME280;11050;52.222;20.916;2023-05-09T05:13:27;101456.25;;;9.94;66.93
21779;BME280;11050;52.222;20.916;2023-05-09T05:15:53;101464.63;;;10.06;65.46
21779;BME280;11050;52.222;20.916;2023-05-09T05:18:19;101466.47;;;10.18;65.19
21779;BME280;11050;52.222;20.916;2023-05-09T05:20:44;101468.69;;;10.34;64.19
21779;BME280;11050;52.222;20.916;2023-05-09T05:23:10;101458.41;;;10.48;63.41
21779;BME280;11050;52.222;20.916;2023-05-09T05:25:36;101466.53;;;10.61;62.22
21779;BME280;11050;52.222;20.916;2023-05-09T05:28:02;101467.47;;;10.73;61.79
21779;BME280;11050;52.222;20.916;2023-05-09T05:30:27;101460.16;;;10.85;59.96
21779;BME280;11050;52.222;20.916;2023-05-09T05:32:53;101462.16;;;10.96;58.55
21779;BME280;11050;52.222;20.916;2023-05-09T05:35:19;101464.31;;;11.12;57.78
21779;BME280;11050;52.222;20.916;2023-05-09T05:37:48;101455.66;;;11.27;56.67
21779;BME280;11050;52.222;20.916;2023-05-09T05:40:13;101457.88;;;11.36;56.03
21779;BME280;11050;52.222;20.916;2023-05-09T05:42:39;101449.22;;;11.51;54.80
21779;BME280;11050;52.222;20.916;2023-05-09T05:45:06;101453.28;;;11.67;54.37
21779;BME280;11050;52.222;20.916;2023-05-09T05:47:34;101459.81;;;11.84;54.04
21779;BME280;11050;52.222;20.916;2023-05-09T05:50:02;101448.34;;;11.98;52.57
21779;BME280;11050;52.222;20.916;2023-05-09T05:52:29;101443.13;;;12.08;52.94
21779;BME280;11050;52.222;20.916;2023-05-09T05:54:54;101450.09;;;12.22;51.28
21779;BME280;11050;52.222;20.916;2023-05-09T05:57:21;101453.47;;;12.36;50.21
21779;BME280;11050;52.222;20.916;2023-05-09T05:59:48;101448.56;;;12.50;49.08
21779;BME280;11050;52.222;20.916;2023-05-09T06:02:17;101453.38;;;12.66;48.95
21779;BME280;11050;52.222;20.916;2023-05-09T06:04:43;101448.22;;;12.81;47.89
21779;BME280;11050;52.222;20.916;2023-05-09T06:07:11;101452.16;;;12.96;46.02
21779;BME280;11050;52.222;20.916;2023-05-09T06:09:38;101444.84;;;13.02;45.13
21779;BME280;11050;52.222;20.916;2023-05-09T06:12:04;101445.09;;;13.12;44.80
21779;BME280;11050;52.222;20.916;2023-05-09T06:14:31;101444.09;;;13.29;44.00
21779;BME280;11050;52.222;20.916;2023-05-09T06:16:58;101442.72;;;13.44;43.07
21779;BME280;11050;52.222;20.916;2023-05-09T06:19:24;101439.22;;;13.48;42.76
21779;BME280;11050;52.222;20.916;2023-05-09T06:21:49;101454.69;;;13.61;42.42
21779;BME280;11050;52.222;20.916;2023-05-09T06:24:15;101462.44;;;13.75;42.81
21779;BME280;11050;52.222;20.916;2023-05-09T06:26:41;101453.00;;;13.88;41.58
21779;BME280;11050;52.222;20.916;2023-05-09T06:29:07;101447.41;;;13.99;40.91
21779;BME280;11050;52.222;20.916;2023-05-09T06:31:33;101453.72;;;14.11;39.83
21779;BME280;11050;52.222;20.916;2023-05-09T06:34:06;101453.66;;;14.23;38.87
21779;BME280;11050;52.222;20.916;2023-05-09T06:36:32;101452.25;;;14.37;39.25
21779;BME280;11050;52.222;20.916;2023-05-09T06:38:58;101446.84;;;14.42;36.78
21779;BME280;11050;52.222;20.916;2023-05-09T06:41:24;101456.06;;;14.48;36.50
21779;BME280;11050;52.222;20.916;2023-05-09T06:43:51;101458.22;;;14.62;37.49
21779;BME280;11050;52.222;20.916;2023-05-09T06:46:16;101454.38;;;14.80;37.75
21779;BME280;11050;52.222;20.916;2023-05-09T06:48:42;101460.72;;;14.97;37.36
21779;BME280;11050;52.222;20.916;2023-05-09T06:51:08;101450.03;;;15.05;37.63
21779;BME280;11050;52.222;20.916;2023-05-09T06:53:34;101443.72;;;15.10;37.49
21779;BME280;11050;52.222;20.916;2023-05-09T06:55:59;101444.38;;;15.17;37.36
21779;BME280;11050;52.222;20.916;2023-05-09T06:58:25;101443.72;;;15.32;36.02
21779;BME280;11050;52.222;20.916;2023-05-09T07:00:52;101429.69;;;15.38;34.75
21779;BME280;11050;52.222;20.916;2023-05-09T07:03:18;101442.59;;;15.49;35.18
21779;BME280;11050;52.222;20.916;2023-05-09T07:05:44;101434.34;;;15.54;34.30
21779;BME280;11050;52.222;20.916;2023-05-09T07:08:10;101428.63;;;15.61;35.56
21779;BME280;11050;52.222;20.916;2023-05-09T07:10:35;101425.47;;;15.79;34.83
21779;BME280;11050;52.222;20.916;2023-05-09T07:13:02;101432.44;;;15.81;35.11
21779;BME280;11050;52.222;20.916;2023-05-09T07:15:28;101431.03;;;15.79;32.65
21779;BME280;11050;52.222;20.916;2023-05-09T07:17:54;101428.38;;;15.89;32.85
21779;BME280;11050;52.222;20.916;2023-05-09T07:20:20;101431.31;;;16.04;33.69
21779;BME280;11050;52.222;20.916;2023-05-09T07:22:46;101425.06;;;16.19;33.05
21779;BME280;11050;52.222;20.916;2023-05-09T07:25:12;101415.88;;;16.18;32.05
21779;BME280;11050;52.222;20.916;2023-05-09T07:27:38;101419.81;;;16.22;32.94
21779;BME280;11050;52.222;20.916;2023-05-09T07:30:05;101416.88;;;16.39;32.38
21779;BME280;11050;52.222;20.916;2023-05-09T07:32:32;101412.31;;;16.49;31.19
21779;BME280;11050;52.222;20.916;2023-05-09T07:34:57;101412.31;;;16.49;29.40
21779;BME280;11050;52.222;20.916;2023-05-09T07:37:23;101412.88;;;16.51;29.88
21779;BME280;11050;52.222;20.916;2023-05-09T07:39:49;101410.44;;;16.60;30.30
21779;BME280;11050;52.222;20.916;2023-05-09T07:42:14;101413.88;;;16.72;30.86
21779;BME280;11050;52.222;20.916;2023-05-09T07:44:40;101405.25;;;16.73;27.77
21779;BME280;11050;52.222;20.916;2023-05-09T07:47:06;101400.25;;;16.70;29.31
21779;BME280;11050;52.222;20.916;2023-05-09T07:49:34;101391.09;;;16.75;28.55
21779;BME280;11050;52.222;20.916;2023-05-09T07:52:00;101397.03;;;16.88;29.15
21779;BME280;11050;52.222;20.916;2023-05-09T07:54:26;101393.13;;;16.89;28.18
21779;BME280;11050;52.222;20.916;2023-05-09T07:56:52;101395.91;;;16.89;27.20
21779;BME280;11050;52.222;20.916;2023-05-09T07:59:18;101385.44;;;17.01;28.36
21779;BME280;11050;52.222;20.916;2023-05-09T08:01:43;101402.47;;;17.20;27.77
21779;BME280;11050;52.222;20.916;2023-05-09T08:04:09;101393.88;;;17.27;25.92
21779;BME280;11050;52.222;20.916;2023-05-09T08:06:35;101392.78;;;17.28;25.71
21779;BME280;11050;52.222;20.916;2023-05-09T08:09:01;101403.94;;;17.33;25.56
21779;BME280;11050;52.222;20.916;2023-05-09T08:11:27;101390.84;;;17.28;24.61
21779;BME280;11050;52.222;20.916;2023-05-09T08:13:53;101403.03;;;17.22;24.66
21779;BME280;11050;52.222;20.916;2023-05-09T08:16:19;101382.50;;;17.28;25.47
21779;BME280;11050;52.222;20.916;2023-05-09T08:18:45;101374.47;;;17.37;26.24
21779;BME280;11050;52.222;20.916;2023-05-09T08:21:10;101382.63;;;17.58;26.47
21779;BME280;11050;52.222;20.916;2023-05-09T08:23:36;101373.72;;;17.61;25.58
21779;BME280;11050;52.222;20.916;2023-05-09T08:26:02;101383.72;;;17.57;25.56
21779;BME280;11050;52.222;20.916;2023-05-09T08:28:28;101382.09;;;17.66;26.56
21779;BME280;11050;52.222;20.916;2023-05-09T08:30:54;101369.06;;;17.87;27.23
21779;BME280;11050;52.222;20.916;2023-05-09T08:33:21;101372.13;;;18.11;25.90
21779;BME280;11050;52.222;20.916;2023-05-09T08:35:51;101366.31;;;18.17;24.90
21779;BME280;11050;52.222;20.916;2023-05-09T08:38:17;101367.41;;;18.16;25.16
21779;BME280;11050;52.222;20.916;2023-05-09T08:40:43;101365.75;;;18.20;25.74
21779;BME280;11050;52.222;20.916;2023-05-09T08:43:08;101365.72;;;18.35;26.29
21779;BME280;11050;52.222;20.916;2023-05-09T08:45:51;101351.53;;;18.37;25.29
21779;BME280;11050;52.222;20.916;2023-05-09T08:48:19;101357.69;;;18.29;26.38
21779;BME280;11050;52.222;20.916;2023-05-09T08:50:46;101355.44;;;18.41;25.90
21779;BME280;11050;52.222;20.916;2023-05-09T08:53:13;101355.47;;;18.46;25.01
21779;BME280;11050;52.222;20.916;2023-05-09T08:55:39;101350.69;;;18.31;25.17
21779;BME280;11050;52.222;20.916;2023-05-09T08:58:05;101351.28;;;18.28;24.88
21779;BME280;11050;52.222;20.916;2023-05-09T09:00:32;101340.13;;;18.33;25.30
21779;BME280;11050;52.222;20.916;2023-05-09T09:03:01;101333.75;;;18.53;25.26
21779;BME280;11050;52.222;20.916;2023-05-09T09:05:30;101337.31;;;18.63;25.19
21779;BME280;11050;52.222;20.916;2023-05-09T09:07:58;101325.63;;;18.66;25.42
21779;BME280;11050;52.222;20.916;2023-05-09T09:10:27;101335.03;;;18.85;26.15
21779;BME280;11050;52.222;20.916;2023-05-09T09:12:57;101335.59;;;18.92;25.07
21779;BME280;11050;52.222;20.916;2023-05-09T09:15:28;101331.94;;;19.02;25.69
21779;BME280;11050;52.222;20.916;2023-05-09T09:17:58;101334.66;;;19.12;26.31
21779;BME280;11050;52.222;20.916;2023-05-09T09:20:32;101332.66;;;19.23;25.28
21779;BME280;11050;52.222;20.916;2023-05-09T09:23:00;101335.19;;;19.19;25.58
21779;BME280;11050;52.222;20.916;2023-05-09T09:25:28;101329.31;;;19.21;25.79
21779;BME280;11050;52.222;20.916;2023-05-09T09:27:53;101328.19;;;19.27;24.64
21779;BME280;11050;52.222;20.916;2023-05-09T09:30:23;101327.91;;;19.28;25.06
21779;BME280;11050;52.222;20.916;2023-05-09T09:32:49;101317.00;;;19.37;25.18
21779;BME280;11050;52.222;20.916;2023-05-09T09:35:16;101314.66;;;19.54;25.16
21779;BME280;11050;52.222;20.916;2023-05-09T09:37:42;101307.94;;;19.60;25.46
21779;BME280;11050;52.222;20.916;2023-05-09T09:40:10;101309.22;;;19.72;24.85
21779;BME280;11050;52.222;20.916;2023-05-09T09:42:44;101323.97;;;19.78;25.24
21779;BME280;11050;52.222;20.916;2023-05-09T09:45:15;101308.44;;;19.67;23.51
21779;BME280;11050;52.222;20.916;2023-05-09T09:47:43;101311.28;;;19.62;23.59
21779;BME280;11050;52.222;20.916;2023-05-09T09:50:18;101305.94;;;19.65;23.14
21779;BME280;11050;52.222;20.916;2023-05-09T09:52:55;101310.22;;;19.53;23.79
21779;BME280;11050;52.222;20.916;2023-05-09T09:55:23;101307.44;;;19.53;24.04
21779;BME280;11050;52.222;20.916;2023-05-09T09:57:50;101304.34;;;19.54;24.16
21779;BME280;11050;52.222;20.916;2023-05-09T10:00:25;101303.09;;;19.70;24.18
21779;BME280;11050;52.222;20.916;2023-05-09T10:02:57;101301.41;;;19.74;24.62
21779;BME280;11050;52.222;20.916;2023-05-09T10:05:26;101298.75;;;19.93;24.60
21779;BME280;11050;52.222;20.916;2023-05-09T10:07:55;101300.84;;;20.06;22.71
21779;BME280;11050;52.222;20.916;2023-05-09T10:10:42;101286.41;;;20.04;23.77
21779;BME280;11050;52.222;20.916;2023-05-09T10:13:10;101289.63;;;20.16;24.30
21779;BME280;11050;52.222;20.916;2023-05-09T10:15:36;101277.66;;;20.11;22.74
21779;BME280;11050;52.222;20.916;2023-05-09T10:18:03;101286.34;;;20.09;22.75
21779;BME280;11050;52.222;20.916;2023-05-09T10:20:30;101280.03;;;20.27;22.83
21779;BME280;11050;52.222;20.916;2023-05-09T10:23:00;101282.06;;;20.22;21.34
21779;BME280;11050;52.222;20.916;2023-05-09T10:27:59;101283.00;;;20.07;22.65
21779;BME280;11050;52.222;20.916;2023-05-09T10:30:31;101276.94;;;20.29;24.14
21779;BME280;11050;52.222;20.916;2023-05-09T10:33:08;101283.03;;;20.59;23.40
21779;BME280;11050;52.222;20.916;2023-05-09T10:35:46;101282.47;;;20.62;22.97
21779;BME280;11050;52.222;20.916;2023-05-09T10:38:15;101275.56;;;20.55;21.62
21779;BME280;11050;52.222;20.916;2023-05-09T10:40:40;101278.78;;;20.43;20.72
21779;BME280;11050;52.222;20.916;2023-05-09T10:43:07;101272.19;;;20.34;21.08
21779;BME280;11050;52.222;20.916;2023-05-09T10:45:34;101265.91;;;20.42;21.90
21779;BME280;11050;52.222;20.916;2023-05-09T10:48:01;101270.75;;;20.84;22.34
21779;BME280;11050;52.222;20.916;2023-05-09T10:50:29;101267.22;;;21.21;22.90
21779;BME280;11050;52.222;20.916;2023-05-09T10:53:05;101264.84;;;21.65;23.74
21779;BME280;11050;52.222;20.916;2023-05-09T10:55:55;101266.31;;;22.27;22.38
21779;BME280;11050;52.222;20.916;2023-05-09T10:58:33;101269.75;;;22.70;21.38
21779;BME280;11050;52.222;20.916;2023-05-09T11:01:03;101253.84;;;23.06;21.35
21779;BME280;11050;52.222;20.916;2023-05-09T11:03:56;101248.19;;;23.33;20.54
21779;BME280;11050;52.222;20.916;2023-05-09T11:09:36;101252.78;;;23.15;20.44
21779;BME280;11050;52.222;20.916;2023-05-09T11:17:09;101233.72;;;24.59;19.06
21779;BME280;11050;52.222;20.916;2023-05-09T11:20:00;101231.59;;;25.20;18.77
21779;BME280;11050;52.222;20.916;2023-05-09T11:22:30;101234.09;;;26.07;18.19
21779;BME280;11050;52.222;20.916;2023-05-09T11:25:09;101226.47;;;26.54;16.54
21779;BME280;11050;52.222;20.916;2023-05-09T11:27:43;101224.53;;;26.84;16.96
21779;BME280;11050;52.222;20.916;2023-05-09T11:30:13;101225.69;;;27.12;16.40
21779;BME280;11050;52.222;20.916;2023-05-09T11:32:49;101217.88;;;27.38;16.64
21779;BME280;11050;52.222;20.916;2023-05-09T11:35:18;101210.97;;;27.68;15.39
21779;BME280;11050;52.222;20.916;2023-05-09T11:38:11;101208.75;;;27.94;15.90
21779;BME280;11050;52.222;20.916;2023-05-09T11:40:44;101193.78;;;28.51;15.74
21779;BME280;11050;52.222;20.916;2023-05-09T11:43:11;101187.66;;;28.97;15.64
21779;BME280;11050;52.222;20.916;2023-05-09T11:45:38;101192.84;;;29.19;14.04
21779;BME280;11050;52.222;20.916;2023-05-09T11:48:08;101193.53;;;29.28;14.68
21779;BME280;11050;52.222;20.916;2023-05-09T11:50:34;101190.44;;;29.73;15.47
21779;BME280;11050;52.222;20.916;2023-05-09T11:52:59;101173.63;;;30.23;14.57
21779;BME280;11050;52.222;20.916;2023-05-09T11:55:25;101179.38;;;30.73;14.25
21779;BME280;11050;52.222;20.916;2023-05-09T11:57:54;101188.47;;;30.79;13.42
21779;BME280;11050;52.222;20.916;2023-05-09T12:00:25;101181.19;;;30.47;12.72
21779;BME280;11050;52.222;20.916;2023-05-09T12:02:51;101180.97;;;30.55;14.34
21779;BME280;11050;52.222;20.916;2023-05-09T12:05:20;101173.38;;;31.10;13.88
21779;BME280;11050;52.222;20.916;2023-05-09T12:07:46;101170.03;;;31.23;13.27
21779;BME280;11050;52.222;20.916;2023-05-09T12:10:19;101171.84;;;31.12;13.59
21779;BME280;11050;52.222;20.916;2023-05-09T12:12:51;101161.72;;;30.80;12.39
21779;BME280;11050;52.222;20.916;2023-05-09T12:15:17;101168.78;;;30.55;12.68
21779;BME280;11050;52.222;20.916;2023-05-09T12:17:44;101165.50;;;30.53;13.38
21779;BME280;11050;52.222;20.916;2023-05-09T12:20:11;101155.00;;;31.04;13.92
21779;BME280;11050;52.222;20.916;2023-05-09T12:22:41;101158.88;;;31.68;13.29
21779;BME280;11050;52.222;20.916;2023-05-09T12:25:09;101140.94;;;32.06;13.29
21779;BME280;11050;52.222;20.916;2023-05-09T12:27:37;101150.00;;;32.57;13.13
21779;BME280;11050;52.222;20.916;2023-05-09T12:30:05;101151.06;;;32.98;12.40
21779;BME280;11050;52.222;20.916;2023-05-09T12:32:40;101159.28;;;33.03;11.90
21779;BME280;11050;52.222;20.916;2023-05-09T12:35:08;101145.88;;;33.03;11.71
21779;BME280;11050;52.222;20.916;2023-05-09T12:37:35;101137.50;;;33.17;12.31
21779;BME280;11050;52.222;20.916;2023-05-09T12:40:05;101133.03;;;33.46;12.01
21779;BME280;11050;52.222;20.916;2023-05-09T12:42:33;101142.81;;;33.19;10.82
21779;BME280;11050;52.222;20.916;2023-05-09T12:45:03;101138.47;;;32.99;10.78
21779;BME280;11050;52.222;20.916;2023-05-09T12:47:32;101134.66;;;33.47;10.87
21779;BME280;11050;52.222;20.916;2023-05-09T12:50:00;101129.09;;;33.94;10.13
21779;BME280;11050;52.222;20.916;2023-05-09T12:52:37;101114.84;;;34.38;10.35
21779;BME280;11050;52.222;20.916;2023-05-09T12:55:06;101112.31;;;34.73;10.63
21779;BME280;11050;52.222;20.916;2023-05-09T12:57:32;101122.69;;;34.95;9.83
21779;BME280;11050;52.222;20.916;2023-05-09T13:00:00;101112.22;;;34.66;10.51
21779;BME280;11050;52.222;20.916;2023-05-09T13:02:26;101115.22;;;34.33;11.22